Date,TemperatureHighF,TemperatureAvgF,TemperatureLowF,DewpointHighF,DewpointAvgF,DewpointLowF,HumidityHigh,HumidityAvg,HumidityLow,PressureMaxIn,PressureMinIn,WindSpeedMaxMPH,WindSpeedAvgMPH,GustSpeedMaxMPH,PrecipitationSumIn
2013-1-1,27.0,13.1,3.0,13.0,7.8,1.0,95,80,55,0.00,40.00,6,1,14,0.01
2013-1-2,21.0,9.3,0.0,9.0,3.8,-3.0,94,80,54,0.00,40.00,4,0,7,0.01
2013-1-3,22.0,10.7,2.0,12.0,5.6,0.0,94,80,56,0.00,40.00,0,0,5,0.00
2013-1-4,32.0,18.9,7.0,19.0,11.6,5.0,92,75,42,0.00,40.00,2,0,8,0.00
2013-1-5,39.0,27.8,17.0,21.0,17.4,14.0,96,68,36,0.00,40.00,7,2,15,0.00
2013-1-6,39.0,31.3,23.0,25.0,18.7,13.0,91,61,45,0.00,40.00,9,2,20,0.00
2013-1-7,39.0,30.4,21.0,28.0,22.0,17.0,98,71,58,0.00,40.00,10,4,20,0.00
2013-1-8,41.0,36.8,30.0,30.0,24.0,18.0,72,60,40,0.00,40.00,13,5,27,0.00
2013-1-9,43.0,39.8,36.0,28.0,24.4,21.0,61,54,47,0.00,40.00,16,10,31,0.00
2013-1-10,41.0,27.8,19.0,31.0,24.9,17.0,100,90,50,0.00,40.00,15,2,24,0.00
2013-1-11,19.0,12.5,1.0,17.0,7.1,-2.0,90,79,66,0.00,40.00,6,1,12,0.00
2013-1-12,10.0,-0.3,-10.0,1.0,-4.8,-14.0,89,81,63,0.00,40.00,3,0,8,0.00
2013-1-13,24.0,3.4,-6.0,5.0,-2.2,-9.0,89,78,43,0.00,40.00,3,0,8,0.00
2013-1-14,16.0,7.2,-1.0,11.0,3.6,-4.0,92,85,72,0.00,40.00,2,0,7,0.00
2013-1-15,27.0,15.7,9.0,17.0,11.8,7.0,98,85,63,0.00,40.00,2,0,6,0.00
2013-1-16,33.0,18.8,3.0,19.0,11.6,0.0,99,76,52,0.00,40.00,1,0,6,0.02
2013-1-17,38.0,21.4,9.0,22.0,14.7,7.0,98,77,49,0.00,40.00,2,0,18,0.01
2013-1-18,44.0,26.7,14.0,20.0,15.4,7.0,96,68,21,0.00,40.00,5,1,17,0.05
2013-1-19,38.0,25.5,11.0,18.0,13.9,9.0,95,64,36,0.00,40.00,2,0,7,0.04
2013-1-20,37.0,25.0,10.0,19.0,13.7,9.0,95,65,38,0.00,40.00,1,0,7,0.04
2013-1-21,45.0,27.7,9.0,20.0,15.1,8.0,97,64,28,0.00,40.00,8,2,17,0.07
2013-1-22,43.0,25.2,7.0,17.0,10.8,5.0,93,59,25,0.00,40.00,9,1,15,0.01
2013-1-23,46.0,32.7,23.0,17.0,13.8,9.0,72,50,22,0.00,40.00,10,4,25,0.01
2013-1-24,46.0,36.7,26.0,33.0,26.4,15.0,98,69,35,0.00,40.00,7,1,25,0.01
2013-1-25,41.0,33.8,23.0,30.0,25.8,21.0,96,74,58,0.00,40.00,11,3,22,0.01
2013-1-26,43.0,36.3,30.0,32.0,30.1,27.0,100,79,61,0.00,40.00,14,4,24,0.01
2013-1-27,34.0,26.1,15.0,30.0,23.7,14.0,100,91,68,0.00,40.00,1,0,6,0.01
2013-1-28,31.0,20.2,11.0,21.0,15.8,9.0,97,84,60,0.00,40.00,5,1,12,0.01
2013-1-29,35.0,24.5,21.0,24.0,22.0,20.0,99,91,64,0.00,40.00,2,0,7,0.08
2013-1-30,39.0,29.1,23.0,30.0,25.6,22.0,100,87,62,0.00,40.00,1,0,10,0.16
2013-1-31,45.0,35.0,30.0,33.0,30.7,29.0,100,85,60,0.00,40.00,1,0,5,0.20
2013-2-1,47.0,33.7,24.0,32.0,27.8,21.0,100,82,39,0.00,40.00,5,1,14,0.20
2013-2-2,44.0,25.6,11.0,24.0,18.8,10.0,100,79,36,0.00,40.00,3,0,6,0.03
2013-2-3,45.0,27.8,15.0,24.0,19.7,14.0,98,76,35,0.00,40.00,3,0,10,0.01
2013-2-4,39.0,32.3,26.0,31.0,26.2,22.0,98,79,63,0.00,40.00,3,1,10,0.00
2013-2-5,48.0,34.3,27.0,32.0,25.9,23.0,98,74,42,0.00,40.00,8,1,16,0.00
2013-2-6,42.0,30.0,20.0,32.0,23.8,17.0,100,81,36,0.00,40.00,3,0,13,0.03
2013-2-7,40.0,30.1,20.0,20.0,16.8,13.0,87,60,37,0.00,40.00,11,4,22,0.03
2013-2-8,35.0,27.5,20.0,25.0,20.4,17.0,88,75,56,0.00,40.00,5,1,11,0.00
2013-2-9,34.0,28.9,26.0,25.0,21.5,13.0,94,75,44,0.00,40.00,4,1,10,0.00
2013-2-10,32.0,24.6,14.0,24.0,19.4,12.0,93,81,52,0.00,40.00,3,1,12,0.02
2013-2-11,35.0,18.3,6.0,19.0,11.7,4.0,97,78,42,0.00,40.00,2,0,6,0.02
2013-2-12,36.0,26.6,18.0,26.0,21.0,16.0,93,80,62,0.00,40.00,2,0,8,0.00
2013-2-13,43.0,35.0,29.0,32.0,26.2,20.0,100,73,41,0.00,40.00,9,3,21,0.00
2013-2-14,42.0,31.8,28.0,29.0,22.5,16.0,91,71,41,0.00,40.00,4,1,10,0.00
2013-2-15,45.0,32.0,23.0,26.0,22.9,20.0,90,71,43,0.00,40.00,4,1,8,0.00
2013-2-16,49.0,33.6,20.0,33.0,22.6,19.0,100,68,37,0.00,40.00,11,4,22,0.00
2013-2-17,34.0,29.9,23.0,33.0,24.1,17.0,100,80,49,0.00,40.00,4,0,20,0.00
2013-2-18,37.0,26.7,14.0,19.0,12.8,8.0,93,61,29,0.00,40.00,12,4,25,0.10
2013-2-19,41.0,32.2,28.0,28.0,15.7,10.0,99,53,32,0.00,40.00,11,6,22,0.10
2013-2-20,35.0,29.4,25.0,28.0,23.5,16.0,100,80,60,0.00,40.00,6,1,13,0.00
2013-2-21,33.0,22.6,9.0,20.0,13.7,7.0,95,70,41,0.00,40.00,5,1,10,0.00
2013-2-22,37.0,28.9,21.0,26.0,19.8,15.0,93,71,43,0.00,40.00,7,2,17,0.00
2013-2-23,33.0,29.0,21.0,30.0,19.9,12.0,100,71,41,0.00,40.00,10,2,18,0.10
2013-2-24,36.0,24.2,15.0,18.0,13.7,10.0,86,66,38,0.00,40.00,6,1,16,0.10
2013-2-25,35.0,26.6,17.0,26.0,17.6,11.0,100,70,43,0.00,40.00,12,3,22,0.00
2013-2-26,33.0,24.0,18.0,22.0,18.3,13.0,98,81,53,0.00,40.00,3,0,6,0.00
2013-2-27,43.0,24.7,11.0,17.0,11.1,6.0,92,63,21,0.00,40.00,8,2,19,0.00
2013-2-28,24.0,22.9,22.0,15.0,14.4,14.0,72,70,67,0.00,40.00,0,0,4,0.00
2013-3-6,44.0,36.5,31.0,34.0,30.4,26.0,100,81,50,0.00,40.00,11,4,22,0.10
2013-3-7,41.0,33.8,27.0,28.0,21.4,14.0,87,63,34,0.00,40.00,5,1,11,0.00
2013-3-8,45.0,28.7,16.0,21.0,17.8,14.0,92,67,29,0.00,40.00,6,2,10,0.00
2013-3-9,47.0,28.5,15.0,22.0,18.2,14.0,95,69,33,0.00,40.00,5,1,12,0.00
2013-3-10,52.0,32.4,16.0,28.0,18.1,13.0,96,62,21,0.00,40.00,15,2,22,0.00
2013-3-11,46.0,36.6,29.0,33.0,23.3,11.0,100,66,26,0.00,40.00,10,3,27,0.06
2013-3-12,52.0,36.2,24.0,31.0,22.8,17.0,87,60,34,0.00,40.00,8,2,15,0.01
2013-3-13,59.0,42.9,30.0,33.0,28.6,26.0,91,61,29,0.00,40.00,6,1,19,0.00
2013-3-14,62.0,43.6,30.0,30.0,27.4,24.0,92,59,24,0.00,40.00,8,2,19,0.00
2013-3-15,56.0,42.8,32.0,31.0,27.0,24.0,84,56,32,0.00,40.00,8,2,15,0.00
2013-3-16,52.0,38.9,28.0,30.0,24.5,17.0,92,61,28,0.00,40.00,5,2,15,0.00
2013-3-17,40.0,29.5,23.0,33.0,22.5,13.0,100,77,48,0.00,40.00,8,2,26,0.08
2013-3-18,39.0,27.7,19.0,27.0,16.1,11.0,94,63,37,0.00,40.00,8,2,21,0.01
2013-3-19,49.0,31.6,14.0,27.0,15.1,-3.0,100,62,11,0.00,40.00,5,2,13,0.01
2013-3-20,55.0,40.9,32.0,37.0,24.6,7.0,100,56,25,0.00,40.00,14,7,34,0.07
2013-3-21,35.0,28.7,21.0,32.0,21.5,13.0,100,77,43,0.00,40.00,6,2,14,0.30
2013-3-22,33.0,23.4,15.0,20.0,15.8,11.0,95,75,41,0.00,40.00,7,2,13,0.01
2013-3-23,35.0,23.5,13.0,20.0,12.7,3.0,93,67,30,0.00,40.00,7,2,15,0.01
2013-3-24,39.0,26.1,16.0,20.0,12.0,5.0,92,60,26,0.00,40.00,6,2,12,0.00
2013-3-25,49.0,29.9,12.0,20.0,10.6,7.0,82,50,20,0.00,40.00,8,2,16,0.00
2013-3-26,55.0,39.9,29.0,27.0,22.7,20.0,84,53,26,0.00,40.00,6,1,14,0.00
2013-3-27,57.0,36.5,24.0,26.0,22.7,21.0,88,63,27,0.00,40.00,9,2,13,0.00
2013-3-28,56.0,50.1,39.0,36.0,33.1,30.0,79,53,40,0.00,40.00,7,2,17,0.00
2013-3-29,54.0,40.2,32.0,39.0,33.8,30.0,96,80,47,0.00,40.00,2,0,13,0.01
2013-3-30,60.0,44.2,32.0,36.0,28.0,-99.9,100,63,25,0.00,40.00,5,2,12,0.01
2013-3-31,66.0,44.2,26.0,27.0,23.8,17.0,96,54,16,0.00,40.00,8,2,14,0.00
2013-4-1,64.0,44.9,28.0,29.0,26.3,22.0,92,55,21,0.00,40.00,9,2,17,0.00
2013-4-2,65.0,46.9,29.0,34.0,30.2,27.0,97,58,28,0.00,40.00,9,2,17,0.00
2013-4-3,64.0,45.6,32.0,34.0,30.0,24.0,96,61,25,0.00,40.00,4,1,11,0.00
2013-4-4,62.0,47.4,32.0,39.0,31.8,29.0,89,59,30,0.00,40.00,10,2,28,0.00
2013-4-5,56.0,44.1,36.0,40.0,36.6,31.0,100,77,39,0.00,40.00,11,2,21,0.05
2013-4-6,51.0,40.1,33.0,38.0,35.1,32.0,100,84,50,0.00,40.00,10,1,21,0.14
2013-4-7,46.0,37.2,32.0,38.0,33.3,27.0,100,87,59,0.00,40.00,4,1,17,0.15
2013-4-8,37.0,32.6,29.0,30.0,23.8,15.0,96,72,45,0.00,40.00,8,2,15,0.03
2013-4-9,49.0,31.2,16.0,21.0,13.6,10.0,84,52,24,0.00,40.00,9,2,21,0.00
2013-4-10,55.0,40.7,26.0,40.0,28.1,20.0,82,62,43,0.00,40.00,6,2,15,0.03
2013-4-11,47.0,40.4,33.0,35.0,26.9,20.0,93,62,34,0.00,40.00,10,2,20,0.03
2013-4-12,58.0,41.0,24.0,26.0,16.6,5.0,91,47,13,0.00,40.00,11,2,24,0.01
2013-4-13,45.0,35.4,28.0,36.0,24.5,14.0,100,67,41,0.00,40.00,10,3,26,0.15
2013-4-14,41.0,31.6,25.0,27.0,23.4,12.0,100,76,30,0.00,40.00,9,2,17,0.05
2013-4-15,37.0,29.5,23.0,27.0,15.5,11.0,87,57,44,0.00,40.00,8,3,15,0.01
2013-4-16,36.0,25.9,14.0,14.0,10.5,9.0,82,54,35,0.00,40.00,10,3,18,0.00
2013-4-17,43.0,27.0,12.0,11.0,6.7,-2.0,82,49,15,0.00,40.00,9,3,19,0.00
2013-4-18,50.0,32.8,17.0,22.0,15.4,10.0,79,52,27,0.00,40.00,6,1,17,0.00
2013-4-19,53.0,41.4,32.0,39.0,29.1,21.0,78,62,44,0.00,40.00,12,2,24,0.00
2013-4-20,52.0,42.9,35.0,36.0,31.5,26.0,96,67,38,0.00,40.00,10,3,23,0.01
2013-4-21,51.0,41.0,27.0,31.0,26.8,20.0,100,61,31,0.00,40.00,9,4,21,0.01
2013-4-22,40.0,28.6,20.0,27.0,19.1,12.0,100,72,33,0.00,40.00,8,4,17,0.17
2013-4-23,46.0,31.0,16.0,21.0,15.8,12.0,93,59,26,0.00,40.00,8,2,17,0.01
2013-4-24,61.0,39.9,21.0,21.0,18.8,13.0,92,51,17,0.00,40.00,7,2,17,0.00
2013-4-25,64.0,46.9,30.0,25.0,21.6,18.0,76,43,18,0.00,40.00,11,3,25,0.00
2013-4-26,68.0,48.5,28.0,29.0,25.4,23.0,86,47,20,0.00,40.00,8,2,23,0.00
2013-4-27,71.0,51.9,32.0,34.0,24.9,15.0,87,44,13,0.00,40.00,10,3,28,0.00
2013-4-28,59.0,51.0,41.0,33.0,28.1,21.0,70,43,26,0.00,40.00,9,4,28,0.00
2013-4-29,49.0,44.3,37.0,39.0,29.8,22.0,94,59,39,0.00,40.00,13,4,31,0.08
2013-4-30,42.0,33.9,27.0,28.0,16.5,6.0,88,52,24,0.00,40.00,7,2,19,0.01
2013-5-1,51.0,35.5,21.0,24.0,16.6,9.0,96,55,20,0.00,40.00,7,2,18,0.00
2013-5-2,67.0,44.1,22.0,22.0,14.5,5.0,80,41,9,0.00,40.00,7,2,16,0.00
2013-5-3,55.0,43.7,35.0,40.0,28.0,19.0,93,55,34,0.00,40.00,8,2,15,0.02
2013-5-4,56.0,45.7,38.0,40.0,35.2,30.0,95,70,40,0.00,40.00,4,1,12,0.03
2013-5-5,67.0,47.7,27.0,35.0,31.5,27.0,100,62,27,0.00,40.00,8,2,16,0.00
2013-5-6,75.0,54.1,32.0,33.0,27.5,17.0,91,46,12,0.00,40.00,9,2,15,0.00
2013-5-7,76.0,56.8,35.0,33.0,29.6,23.0,81,42,15,0.00,40.00,12,3,27,0.00
2013-5-8,78.0,56.3,36.0,37.0,33.1,28.0,84,48,16,0.00,40.00,11,2,22,0.00
2013-5-9,75.0,56.2,35.0,36.0,33.5,27.0,88,49,17,0.00,40.00,14,3,23,0.00
2013-5-10,78.0,60.4,40.0,42.0,29.7,-99.9,87,42,13,0.00,40.00,10,2,18,0.00
2013-5-11,80.0,59.2,38.0,40.0,32.5,-99.9,82,44,18,0.00,40.00,14,2,23,0.00
2013-5-12,86.0,64.3,42.0,44.0,34.9,27.0,80,42,13,0.00,40.00,10,3,22,0.00
2013-5-13,85.0,62.9,45.0,45.0,37.3,25.0,87,47,11,0.00,40.00,11,3,27,0.00
2013-5-14,72.0,55.6,35.0,40.0,30.9,25.0,83,44,18,0.00,40.00,9,3,18,0.00
2013-5-15,66.0,50.6,36.0,43.0,33.7,30.0,82,56,29,0.00,40.00,10,3,28,0.00
2013-5-16,62.0,45.5,39.0,42.0,25.5,-99.9,94,72,40,0.00,40.00,7,3,18,0.00
2013-5-17,51.0,46.0,41.0,44.0,39.7,-99.9,98,82,65,0.00,40.00,7,2,13,0.51
2013-5-18,60.0,49.1,42.0,44.0,41.1,35.0,100,76,45,0.00,40.00,7,2,17,0.05
2013-5-19,52.0,47.6,43.0,40.0,37.0,34.0,86,68,50,0.00,40.00,7,2,13,0.01
2013-5-20,70.0,55.4,44.0,40.0,37.0,32.0,80,54,25,0.00,40.00,5,1,14,0.00
2013-5-21,73.0,56.1,37.0,45.0,35.1,27.0,93,53,20,0.00,40.00,11,4,24,0.02
2013-5-22,59.0,47.8,39.0,46.0,40.9,32.0,100,79,54,0.00,40.00,15,4,22,0.02
2013-5-23,59.0,44.9,35.0,36.0,29.4,22.0,92,61,27,0.00,40.00,11,3,20,0.01
2013-5-24,57.0,46.5,32.0,35.0,30.2,23.0,93,57,27,0.00,40.00,14,5,26,0.00
2013-5-25,59.0,46.5,32.0,41.0,35.3,30.0,93,67,40,0.00,40.00,7,2,18,0.01
2013-5-26,63.0,45.0,32.0,44.0,37.9,32.0,100,78,47,0.00,40.00,11,2,33,0.54
2013-5-27,60.0,48.1,38.0,45.0,41.8,38.0,100,81,51,0.00,40.00,6,2,19,0.36
2013-5-28,58.0,48.8,42.0,47.0,42.4,39.0,100,81,50,0.00,40.00,7,1,18,0.36
2013-5-29,67.0,50.8,38.0,43.0,37.8,31.0,99,66,27,0.00,40.00,9,2,41,0.01
2013-5-30,57.0,47.4,39.0,40.0,34.2,29.0,94,64,35,0.00,40.00,8,2,17,0.01
2013-5-31,58.0,45.5,33.0,37.0,30.4,26.0,93,61,30,0.00,40.00,7,2,16,0.00
2013-6-1,70.0,50.3,30.0,35.0,29.1,24.0,94,52,22,0.00,40.00,6,2,17,0.00
2013-6-2,52.0,46.9,41.0,47.0,39.6,31.0,97,77,46,0.00,40.00,5,1,12,0.28
2013-6-3,62.0,49.2,40.0,43.0,39.2,33.0,100,74,34,0.00,40.00,8,2,15,0.12
2013-6-4,67.0,51.1,38.0,43.0,38.9,35.0,98,68,31,0.00,40.00,5,2,18,0.00
2013-6-5,79.0,57.4,35.0,43.0,36.2,29.0,100,56,17,0.00,40.00,7,2,16,0.00
2013-6-6,82.0,62.6,44.0,46.0,39.9,35.0,78,47,23,0.00,40.00,5,2,13,0.00
2013-6-7,79.0,62.8,46.0,46.0,41.7,36.0,86,52,23,0.00,40.00,9,3,24,0.00
2013-6-8,80.0,66.1,50.0,43.0,36.0,27.0,72,38,15,0.00,40.00,9,3,28,0.00
2013-6-9,85.0,63.1,41.0,42.0,32.9,16.0,83,43,8,0.00,40.00,14,3,29,0.00
2013-6-10,81.0,63.5,42.0,42.0,36.5,28.0,85,42,20,0.00,40.00,10,3,16,0.00
2013-6-11,78.0,62.3,47.0,48.0,42.5,35.0,80,52,24,0.00,40.00,6,2,19,0.03
2013-6-12,72.0,55.2,42.0,47.0,43.8,41.0,98,69,40,0.00,40.00,10,4,18,0.03
2013-6-13,59.0,50.1,41.0,44.0,41.9,39.0,94,75,52,0.00,40.00,5,1,28,0.52
2013-6-14,62.0,48.7,39.0,42.0,36.5,29.0,99,69,30,0.00,40.00,6,2,19,0.09
2013-6-15,77.0,54.2,32.0,40.0,32.3,23.0,100,55,14,0.00,40.00,7,2,14,0.05
2013-6-16,82.0,60.4,36.0,40.0,33.5,27.0,87,45,14,0.00,40.00,7,2,19,0.00
2013-6-17,84.0,62.8,43.0,45.0,38.2,34.0,79,46,17,0.00,40.00,8,2,17,0.00
2013-6-18,88.0,64.4,44.0,51.0,41.0,27.0,84,49,12,0.00,40.00,8,3,27,0.00
2013-6-19,63.0,52.0,44.0,49.0,45.7,38.0,99,80,56,0.00,40.00,6,0,16,0.37
2013-6-20,61.0,46.6,43.0,41.0,37.9,36.0,87,72,39,0.00,40.00,6,4,23,0.12
2013-6-22,61.0,55.9,46.0,47.0,38.9,31.0,99,56,32,0.00,40.00,7,3,15,0.20
2013-6-23,74.0,54.6,34.0,43.0,37.6,34.0,100,60,27,0.00,40.00,6,2,11,0.01
2013-6-24,70.0,58.2,48.0,52.0,45.4,41.0,94,64,41,0.00,40.00,8,2,33,0.05
2013-6-25,68.0,57.2,48.0,51.0,46.2,40.0,94,70,38,0.00,40.00,6,2,18,0.05
2013-6-26,67.0,59.4,53.0,54.0,48.7,45.0,84,69,51,0.00,40.00,6,3,16,0.05
2013-6-27,86.0,65.5,47.0,54.0,49.3,46.0,100,64,25,0.00,40.00,7,2,17,0.02
2013-6-28,90.0,70.8,50.0,53.0,49.2,46.0,95,53,23,0.00,40.00,7,2,15,0.01
2013-6-29,88.0,68.9,53.0,62.0,52.6,49.0,91,59,31,0.00,40.00,6,1,18,0.00
2013-6-30,92.0,73.8,56.0,57.0,51.9,41.0,98,55,17,0.00,40.00,8,2,16,0.00
2013-7-1,98.0,75.2,53.0,55.0,48.8,38.0,87,46,18,0.00,40.00,7,3,19,0.00
2013-7-2,97.0,76.8,56.0,56.0,49.4,43.0,76,43,16,0.00,40.00,8,2,17,0.00
2013-7-3,90.0,74.5,56.0,56.0,49.3,34.0,89,48,14,0.00,40.00,7,2,16,0.00
2013-7-4,87.0,69.5,50.0,50.0,42.8,37.0,75,42,17,0.00,40.00,6,2,17,0.00
2013-7-5,79.0,66.3,49.0,49.0,43.5,41.0,80,47,26,0.00,40.00,5,2,24,0.00
2013-7-6,85.0,62.0,44.0,47.0,41.5,34.0,91,54,18,0.00,40.00,8,2,19,0.00
2013-7-7,88.0,68.2,45.0,44.0,38.3,35.0,74,39,15,0.00,40.00,8,2,21,0.00
2013-7-8,86.0,66.3,51.0,47.0,42.2,40.0,73,44,21,0.00,40.00,9,2,20,0.00
2013-7-9,91.0,68.3,45.0,45.0,38.5,29.0,88,43,11,0.00,40.00,7,2,16,0.00
2013-7-10,94.0,72.4,45.0,40.0,31.2,-99.9,64,27,9,0.00,40.00,12,3,27,0.00
2013-7-11,82.0,66.9,53.0,49.0,41.9,38.0,62,42,27,0.00,40.00,8,1,18,0.00
2013-7-12,84.0,62.4,44.0,44.0,40.8,33.0,90,53,17,0.00,40.00,10,3,34,0.00
2013-7-13,81.0,64.4,44.0,43.0,36.3,23.0,89,43,15,0.00,40.00,8,2,21,0.00
2013-7-14,89.0,65.1,41.0,37.0,32.0,28.0,66,34,12,0.00,40.00,8,2,18,0.00
2013-7-15,95.0,68.7,45.0,41.0,33.9,24.0,67,35,9,0.00,40.00,11,2,23,0.00
2013-7-16,88.0,73.7,60.0,64.0,51.3,40.0,97,54,22,0.00,40.00,9,4,24,0.21
2013-7-17,87.0,73.2,60.0,58.0,54.5,49.0,87,55,27,0.00,40.00,10,4,25,0.25
2013-7-18,90.0,73.9,51.0,56.0,38.9,19.0,100,40,8,0.00,40.00,6,3,16,0.00
2013-7-19,91.0,69.6,45.0,37.0,32.6,26.0,71,32,10,0.00,40.00,8,3,19,0.00
2013-7-20,92.0,68.9,46.0,39.0,31.2,24.0,67,32,9,0.00,40.00,8,2,19,0.00
2013-7-21,93.0,69.4,43.0,35.0,27.1,20.0,55,26,7,0.00,40.00,7,2,15,0.00
2013-7-22,91.0,70.0,44.0,34.0,25.5,16.0,53,24,7,0.00,40.00,8,3,20,0.00
2013-7-23,94.0,68.4,44.0,31.0,25.8,22.0,51,25,8,0.00,40.00,6,2,14,0.00
2013-7-24,95.0,72.2,49.0,31.0,24.7,16.0,48,22,6,0.00,40.00,8,2,17,0.00
2013-7-25,94.0,71.4,47.0,40.0,29.5,19.0,49,25,10,0.00,40.00,7,2,19,0.00
2013-7-26,89.0,70.1,50.0,39.0,34.3,30.0,55,30,12,0.00,40.00,11,2,29,0.00
2013-7-27,89.0,69.5,51.0,43.0,31.4,18.0,61,31,8,0.00,40.00,6,2,18,0.00
2013-7-28,85.0,66.4,48.0,37.0,28.8,21.0,50,27,12,0.00,40.00,9,2,18,0.00
2013-7-29,85.0,62.8,44.0,33.0,27.8,14.0,58,31,8,0.00,40.00,8,2,17,0.00
2013-7-30,85.0,68.2,54.0,36.0,30.6,28.0,38,26,15,0.00,40.00,9,2,16,0.00
2013-7-31,92.0,66.0,42.0,40.0,32.0,28.0,62,33,11,0.00,40.00,9,2,19,0.00
2013-8-1,72.0,58.4,51.0,56.0,47.5,39.0,100,71,32,0.00,40.00,22,1,35,0.51
2013-8-2,72.0,56.8,43.0,55.0,44.7,40.0,100,69,35,0.00,40.00,12,3,36,0.40
2013-8-3,79.0,59.7,41.0,45.0,42.6,39.0,100,61,25,0.00,40.00,8,2,16,0.03
2013-8-4,86.0,64.2,42.0,46.0,39.5,29.0,100,52,14,0.00,40.00,7,2,17,0.00
2013-8-5,86.0,65.7,46.0,43.0,38.5,33.0,79,43,17,0.00,40.00,9,2,19,0.00
2013-8-6,84.0,66.1,45.0,44.0,39.2,34.0,82,43,17,0.00,40.00,8,2,18,0.00
2013-8-7,90.0,67.5,45.0,42.0,33.8,19.0,81,38,8,0.00,40.00,6,2,16,0.00
2013-8-8,88.0,67.3,44.0,39.0,32.0,22.0,66,32,9,0.00,40.00,10,3,19,0.00
2013-8-9,88.0,66.5,55.0,54.0,45.0,38.0,82,49,21,0.00,40.00,18,3,36,0.00
2013-8-10,87.0,65.7,43.0,49.0,43.6,34.0,100,54,15,0.00,40.00,12,2,25,0.01
2013-8-11,86.0,65.7,49.0,43.0,39.0,32.0,73,42,17,0.00,40.00,11,2,25,0.01
2013-8-12,84.0,63.5,44.0,42.0,39.0,28.0,79,45,13,0.00,40.00,7,2,29,0.00
2013-8-13,84.0,62.8,48.0,47.0,37.9,-99.9,76,47,16,0.00,40.00,5,1,15,0.00
2013-8-14,89.0,66.9,42.0,45.0,37.7,28.0,94,47,12,0.00,40.00,7,2,16,0.00
2013-8-15,95.0,67.0,47.0,41.0,23.0,-99.9,66,30,6,0.00,40.00,11,2,19,0.00
2013-8-16,93.0,69.6,45.0,37.0,29.8,23.0,54,27,8,0.00,40.00,8,2,22,0.00
2013-8-17,87.0,68.1,48.0,44.0,37.7,-99.9,70,37,16,0.00,40.00,5,2,16,0.00
2013-8-18,90.0,70.6,49.0,44.0,40.6,34.0,73,39,14,0.00,40.00,12,2,24,0.00
2013-8-19,90.0,65.8,48.0,41.0,28.5,-99.9,75,36,10,0.00,40.00,10,2,25,0.00
2013-8-20,88.0,67.0,45.0,37.0,31.9,-99.9,67,33,12,0.00,40.00,9,2,16,0.00
2013-8-21,86.0,64.3,43.0,35.0,31.9,29.0,65,34,13,0.00,40.00,8,2,15,0.00
2013-8-22,89.0,67.1,49.0,48.0,35.2,29.0,51,33,16,0.00,40.00,11,2,16,0.00
2013-8-23,86.0,67.3,52.0,55.0,47.0,36.0,100,57,17,0.00,40.00,11,2,30,0.07
2013-8-24,86.0,65.5,48.0,47.0,39.9,-99.9,91,47,15,0.00,40.00,13,3,34,0.01
2013-8-25,86.0,67.3,52.0,47.0,41.6,36.0,68,42,17,0.00,40.00,25,5,44,0.00
2013-8-26,86.0,67.8,49.0,49.0,41.6,34.0,85,46,17,0.00,40.00,7,2,21,0.00
2013-8-27,84.0,57.7,48.0,42.0,39.6,35.0,74,55,18,0.00,40.00,12,2,18,0.00
2013-8-28,82.0,68.5,57.0,57.0,52.6,47.0,94,60,34,0.00,40.00,7,2,11,0.22
2013-8-29,86.0,66.8,50.0,52.0,47.5,39.0,97,58,19,0.00,40.00,10,2,22,0.14
2013-8-30,86.0,65.4,45.0,50.0,45.9,40.0,100,58,21,0.00,40.00,9,2,18,0.00
2013-8-31,89.0,65.0,45.0,46.0,39.6,-99.9,97,50,15,0.00,40.00,7,2,16,0.00
2013-9-1,94.0,67.2,43.0,38.0,34.4,28.0,79,38,10,0.00,40.00,6,2,19,0.00
2013-9-2,87.0,65.8,48.0,43.0,36.1,31.0,57,36,16,0.00,40.00,14,2,23,0.00
2013-9-3,79.0,66.5,59.0,62.0,48.6,41.0,72,53,35,0.00,40.00,9,2,22,0.07
2013-9-4,87.0,70.2,53.0,55.0,49.9,43.0,100,56,23,0.00,40.00,10,3,21,0.07
2013-9-5,77.0,63.5,55.0,61.0,52.5,47.0,100,70,45,0.00,40.00,7,1,36,0.74
2013-9-6,80.0,63.1,53.0,59.0,54.2,45.0,100,78,29,0.00,40.00,10,2,22,0.33
2013-9-7,84.0,63.1,48.0,52.0,43.6,-99.9,100,61,13,0.00,40.00,10,2,20,0.00
2013-9-8,70.0,56.8,43.0,47.0,43.6,38.0,100,65,38,0.00,40.00,10,2,18,0.00
2013-9-9,76.0,56.2,43.0,47.0,42.1,39.0,92,64,28,0.00,40.00,6,2,14,0.00
2013-9-10,82.0,61.0,39.0,43.0,39.0,33.0,100,53,17,0.00,40.00,8,2,15,0.00
2013-9-11,83.0,61.8,40.0,43.0,40.4,38.0,99,53,22,0.00,40.00,11,3,18,0.00
2013-9-12,86.0,66.0,46.0,46.0,41.5,37.0,83,46,21,0.00,40.00,5,2,16,0.00
2013-9-13,80.0,67.5,57.0,60.0,49.2,42.0,95,56,29,0.00,40.00,6,2,15,0.11
2013-9-14,78.0,61.9,52.0,56.0,48.2,-99.9,100,70,26,0.00,40.00,7,1,13,0.11
2013-9-15,82.0,64.9,47.0,48.0,45.0,42.0,92,53,27,0.00,40.00,7,3,18,0.00
2013-9-16,83.0,66.8,51.0,50.0,40.3,19.0,88,46,13,0.00,40.00,13,4,26,0.00
2013-9-17,67.0,52.2,41.0,48.0,40.6,27.0,93,67,31,0.00,40.00,6,1,15,0.00
2013-9-18,49.0,46.2,41.0,48.0,44.0,35.0,100,92,71,0.00,40.00,2,0,8,0.12
2013-9-19,68.0,49.2,32.0,36.0,31.0,26.0,100,58,22,0.00,40.00,6,2,12,0.03
2013-9-20,77.0,53.0,32.0,30.0,26.0,20.0,85,45,12,0.00,40.00,14,3,27,0.00
2013-9-21,76.0,57.6,41.0,35.0,25.4,-99.9,56,33,13,0.00,40.00,11,3,22,0.00
2013-9-22,57.0,48.8,43.0,48.0,44.3,35.0,100,85,43,0.00,40.00,5,1,9,0.07
2013-9-23,62.0,49.5,41.0,45.0,38.8,31.0,100,73,31,0.00,40.00,6,2,13,0.07
2013-9-24,45.0,41.3,36.0,45.0,39.9,35.0,100,95,74,0.00,40.00,2,0,6,0.36
2013-9-25,43.0,39.3,35.0,43.0,39.3,35.0,100,100,99,0.00,40.00,7,1,16,0.78
2013-9-26,45.0,39.3,37.0,41.0,35.7,31.0,100,88,62,0.00,40.00,7,2,16,0.45
2013-9-27,48.0,39.3,31.0,36.0,32.3,28.0,100,79,46,0.00,40.00,4,2,13,0.01
2013-9-28,61.0,49.4,42.0,39.0,33.8,-99.9,71,57,44,0.00,40.00,11,5,20,0.00
2013-9-29,55.0,45.4,37.0,45.0,38.8,35.0,100,81,49,0.00,40.00,9,4,23,0.73
2013-9-30,51.0,43.2,39.0,45.0,35.5,23.0,100,78,36,0.00,40.00,11,4,40,0.80
2013-10-1,47.0,41.8,37.0,40.0,37.8,32.0,100,87,55,0.00,40.00,6,1,11,0.08
2013-10-2,51.0,40.4,33.0,37.0,32.1,27.0,100,76,42,0.00,40.00,9,2,15,0.11
2013-10-3,40.0,35.1,32.0,34.0,31.7,28.0,100,88,65,0.00,40.00,4,1,13,0.26
2013-10-4,52.0,36.9,29.0,32.0,28.3,20.0,100,76,28,0.00,40.00,4,1,10,0.01
2013-10-5,61.0,39.9,24.0,31.0,27.6,24.0,100,69,28,0.00,40.00,5,2,12,0.00
2013-10-6,66.0,45.4,30.0,32.0,28.6,26.0,98,61,23,0.00,40.00,9,2,18,0.00
2013-10-7,69.0,49.9,35.0,30.0,26.9,21.0,78,48,16,0.00,40.00,13,2,24,0.00
2013-10-8,51.0,42.4,34.0,33.0,28.9,21.0,95,62,34,0.00,40.00,6,1,11,0.00
2013-10-9,56.0,41.8,34.0,35.0,31.9,29.0,96,72,39,0.00,40.00,8,2,16,0.00
2013-10-10,49.0,39.1,27.0,33.0,31.2,27.0,100,76,48,0.00,40.00,7,1,12,0.00
2013-10-11,54.0,41.1,31.0,33.0,26.5,20.0,83,61,27,0.00,40.00,7,1,16,0.00
2013-10-12,50.0,35.4,26.0,29.0,24.4,-99.9,100,70,37,0.00,40.00,9,2,15,0.00
2013-10-13,49.0,37.2,27.0,38.0,30.1,27.0,100,79,48,0.00,40.00,8,2,14,0.00
2013-10-14,45.0,39.4,32.0,35.0,31.7,28.0,100,75,52,0.00,40.00,6,1,14,0.01
2013-10-15,55.0,36.2,23.0,32.0,25.5,22.0,100,72,28,0.00,40.00,6,1,12,0.01
2013-10-16,50.0,35.1,24.0,28.0,25.0,23.0,99,70,37,0.00,40.00,4,1,11,0.00
2013-10-17,48.0,38.4,32.0,34.0,29.6,25.0,96,73,42,0.00,40.00,6,1,10,0.00
2013-10-18,58.0,36.3,22.0,32.0,25.5,22.0,100,72,27,0.00,40.00,5,1,11,0.00
2013-10-19,63.0,39.8,24.0,26.0,21.6,-99.9,99,58,20,0.00,40.00,6,1,16,0.00
2013-10-20,59.0,42.1,30.0,30.0,24.8,19.0,79,52,32,0.00,40.00,7,1,13,0.00
2013-10-21,63.0,41.0,27.0,35.0,30.4,27.0,100,72,33,0.00,40.00,5,1,10,0.00
2013-10-22,67.0,42.8,28.0,34.0,30.5,26.0,100,69,24,0.00,40.00,5,1,10,0.00
2013-10-23,65.0,40.9,25.0,32.0,27.9,24.0,100,66,29,0.00,40.00,7,1,11,0.00
2013-10-24,68.0,41.8,25.0,30.0,27.1,25.0,100,63,23,0.00,40.00,5,1,9,0.00
2013-10-25,67.0,41.9,26.0,31.0,28.2,26.0,100,65,24,0.00,40.00,6,1,10,0.00
2013-10-26,65.0,40.6,25.0,30.0,25.6,-99.9,100,64,23,0.00,40.00,5,1,9,0.00
2013-10-27,62.0,38.5,26.0,29.0,24.5,21.0,92,61,24,0.00,40.00,9,2,20,0.00
2013-10-28,39.0,29.6,23.0,26.0,18.5,13.0,93,64,52,0.00,40.00,10,4,19,0.00
2013-10-29,45.0,28.5,16.0,25.0,17.6,13.0,92,66,38,0.00,40.00,6,1,11,0.00
2013-10-30,46.0,36.0,30.0,28.0,25.3,22.0,83,67,39,0.00,40.00,4,1,13,0.00
2013-10-31,51.0,36.9,30.0,40.0,30.2,24.0,100,78,44,0.00,40.00,5,1,14,0.05
2013-11-1,52.0,38.2,32.0,39.0,31.6,26.0,100,81,37,0.00,40.00,8,1,15,0.06
2013-11-2,49.0,37.2,31.0,40.0,28.9,-99.9,100,77,38,0.00,40.00,12,3,30,0.10
2013-11-3,38.0,31.6,25.0,32.0,20.4,13.0,100,65,42,0.00,40.00,6,1,14,0.01
2013-11-4,36.0,27.0,20.0,23.0,19.3,13.0,100,75,46,0.00,40.00,4,1,8,0.01
2013-11-5,34.0,25.8,14.0,23.0,15.2,9.0,93,65,41,0.00,40.00,7,2,20,0.00
2013-11-6,45.0,37.5,32.0,33.0,24.5,19.0,100,62,40,0.00,40.00,6,2,18,0.00
2013-11-7,45.0,38.4,32.0,39.0,33.7,28.0,100,84,66,0.00,40.00,14,6,32,0.19
2013-11-8,43.0,35.5,29.0,34.0,29.7,23.0,100,81,55,0.00,40.00,8,3,24,0.19
2013-11-9,47.0,32.1,23.0,32.0,24.9,-99.9,100,79,44,0.00,40.00,5,1,11,0.01
2013-11-10,62.0,43.8,32.0,33.0,31.1,27.0,100,67,29,0.00,40.00,11,2,20,0.00
2013-11-11,59.0,38.0,28.0,35.0,31.1,28.0,100,81,33,0.00,40.00,5,1,8,0.00
2013-11-12,60.0,36.1,29.0,31.0,28.2,24.0,100,78,25,0.00,40.00,7,1,13,0.00
2013-11-13,51.0,42.5,32.0,40.0,29.3,21.0,100,62,33,0.00,40.00,9,2,17,0.01
2013-11-14,46.0,32.8,24.0,29.0,23.3,16.0,100,72,35,0.00,40.00,4,1,9,0.01
2013-11-15,42.0,34.5,30.0,26.0,19.8,12.0,80,57,32,0.00,40.00,7,1,18,0.00
2013-11-16,35.0,30.8,26.0,31.0,23.2,-99.9,100,77,54,0.00,40.00,6,2,15,0.00
2013-11-17,38.0,31.8,27.0,31.0,21.5,16.0,97,67,46,0.00,40.00,5,2,17,0.04
2013-11-18,44.0,34.4,22.0,22.0,17.5,14.0,85,52,32,0.00,40.00,10,3,22,0.01
2013-11-19,50.0,41.5,34.0,39.0,30.1,21.0,100,66,45,0.00,40.00,9,3,19,0.04
2013-11-20,38.0,32.5,19.0,38.0,24.4,10.0,100,75,36,0.00,40.00,5,1,15,0.22
2013-11-21,30.0,18.9,10.0,13.0,10.8,7.0,93,72,40,0.00,40.00,5,1,9,0.03
2013-11-22,37.0,18.8,8.0,15.0,10.7,7.0,99,75,28,0.00,40.00,5,1,9,0.00
2013-11-23,41.0,20.8,10.0,19.0,13.4,-99.9,100,80,35,0.00,40.00,5,1,9,0.00
2013-11-24,46.0,24.5,14.0,20.0,16.9,14.0,100,77,31,0.00,40.00,4,0,8,0.00
2013-11-25,46.0,31.1,20.0,25.0,20.8,18.0,100,69,37,0.00,40.00,4,0,6,0.00
2013-11-26,52.0,32.6,22.0,26.0,23.2,20.0,100,75,29,0.00,40.00,6,1,14,0.00
2013-11-27,48.0,33.1,26.0,25.0,22.9,20.0,92,69,34,0.00,40.00,5,0,7,0.00
2013-11-28,46.0,27.8,19.0,24.0,21.9,19.0,100,81,35,0.00,40.00,2,0,6,0.00
2013-11-29,50.0,31.0,19.0,24.0,21.4,19.0,100,72,33,0.00,40.00,7,1,14,0.00
2013-11-30,44.0,35.7,32.0,34.0,26.6,-99.9,100,72,56,0.00,40.00,2,0,7,0.00
2013-12-1,38.0,35.0,31.0,38.0,34.7,31.0,100,99,84,0.00,40.00,7,2,18,0.52
2013-12-2,42.0,32.0,21.0,40.0,30.4,21.0,100,94,73,0.00,40.00,6,1,28,0.94
2013-12-3,21.0,12.5,-2.0,21.0,3.3,-8.0,100,69,39,0.00,40.00,6,1,16,0.01
2013-12-4,11.0,-1.7,-10.0,-5.0,-9.9,-14.0,83,69,39,0.00,40.00,3,0,6,0.00
2013-12-5,7.0,-3.2,-13.0,-4.0,-11.5,-18.0,81,67,46,0.00,40.00,5,1,10,0.00
2013-12-6,8.0,-3.3,-10.0,-6.0,-11.0,-16.0,83,70,43,0.00,40.00,5,0,9,0.00
2013-12-7,1.0,-6.0,-13.0,-12.0,-14.7,-99.9,80,68,48,0.00,40.00,6,1,11,0.00
2013-12-8,5.0,-7.3,-17.0,-1.0,-13.1,-22.0,82,75,67,0.00,40.00,4,0,8,0.00
2013-12-9,18.0,5.7,-12.0,11.0,-0.4,-17.0,84,76,62,0.00,40.00,7,1,13,0.00
2013-12-10,26.0,20.5,16.0,18.0,14.9,8.0,100,79,64,0.00,40.00,6,1,14,0.00
2013-12-11,31.0,19.3,7.0,16.0,12.3,6.0,100,77,48,0.00,40.00,10,2,19,0.00
2013-12-12,36.0,28.5,23.0,21.0,14.5,9.0,92,57,41,0.00,40.00,12,4,23,0.00
2013-12-13,34.0,26.9,21.0,30.0,24.6,21.0,100,92,70,0.00,40.00,0,0,6,0.00
2013-12-14,30.0,25.8,22.0,30.0,23.3,-99.9,100,98,100,0.00,40.00,2,0,6,0.00
2013-12-15,47.0,42.5,38.0,27.0,24.2,21.0,53,48,45,0.00,40.00,11,5,25,0.02
2013-12-16,40.0,30.8,22.0,24.0,21.6,18.0,100,70,49,0.00,40.00,3,1,11,0.01
2013-12-17,49.0,30.4,18.0,21.0,18.3,15.0,100,69,29,0.00,40.00,10,3,21,0.00
2013-12-18,47.0,37.4,31.0,32.0,20.9,15.0,100,53,32,0.00,40.00,8,2,19,0.00
2013-12-19,32.0,25.0,13.0,32.0,22.0,13.0,100,89,63,0.00,40.00,6,1,15,0.00
2013-12-20,29.0,18.4,8.0,25.0,13.4,8.0,100,83,50,0.00,40.00,6,2,18,0.00
2013-12-21,31.0,26.5,24.0,30.0,25.1,-99.9,100,98,89,0.00,40.00,1,0,10,0.00
2013-12-22,32.0,27.4,22.0,32.0,26.6,22.0,100,97,81,0.00,40.00,1,0,6,0.02
2013-12-23,43.0,33.5,28.0,38.0,31.6,25.0,100,93,68,0.00,40.00,7,2,33,0.31
2013-12-24,38.0,29.2,18.0,29.0,22.7,15.0,100,79,42,0.00,40.00,5,1,15,0.22
2013-12-25,35.0,20.4,9.0,22.0,14.9,9.0,100,82,45,0.00,40.00,3,0,9,0.03
2013-12-26,44.0,30.6,22.0,29.0,23.0,17.0,100,77,38,0.00,40.00,8,1,15,0.00
2013-12-27,47.0,32.8,23.0,29.0,21.3,16.0,100,69,31,0.00,40.00,11,3,22,0.00
2013-12-28,43.0,33.4,23.0,32.0,19.7,-99.9,98,61,33,0.00,40.00,3,0,14,0.00
2013-12-29,31.0,21.9,12.0,25.0,17.6,12.0,100,84,57,0.00,40.00,2,0,6,0.00
2013-12-30,39.0,30.3,24.0,34.0,26.4,24.0,100,86,60,0.00,40.00,6,1,14,0.00
2013-12-31,43.0,34.2,31.0,37.0,32.9,30.0,100,96,61,0.00,40.00,4,1,10,0.03
2014-1-1,38.0,29.3,23.0,31.0,26.2,20.0,100,90,50,0.00,40.00,4,0,7,0.02
2014-1-2,41.0,30.5,21.0,26.0,21.4,18.0,100,74,42,0.00,40.00,11,3,22,0.01